sensor_id;sensor_type;location;lat;lon;timestamp;pressure;altitude;pressure_sealevel;temperature;humidity
36062;BME280;22123;52.412;20.970;2023-03-18T00:00:11;101283.19;;;2.37;78.30
36062;BME280;22123;52.412;20.970;2023-03-18T00:02:38;101243.97;;;2.13;76.37
36062;BME280;22123;52.412;20.970;2023-03-18T00:05:06;101165.53;;;1.66;75.73
36062;BME280;22123;52.412;20.970;2023-03-18T00:07:33;101229.25;;;2.07;74.43
36062;BME280;22123;52.412;20.970;2023-03-18T00:09:59;101276.25;;;2.34;73.94
36062;BME280;22123;52.412;20.970;2023-03-18T00:12:25;101289.22;;;2.39;75.15
36062;BME280;22123;52.412;20.970;2023-03-18T00:14:51;101281.94;;;2.42;73.71
36062;BME280;22123;52.412;20.970;2023-03-18T00:17:17;101228.03;;;2.13;72.45
36062;BME280;22123;52.412;20.970;2023-03-18T00:19:43;101281.00;;;2.43;73.42
36062;BME280;22123;52.412;20.970;2023-03-18T00:22:09;101236.84;;;2.14;73.20
36062;BME280;22123;52.412;20.970;2023-03-18T00:24:37;101248.78;;;2.21;72.03
36062;BME280;22123;52.412;20.970;2023-03-18T00:27:03;101236.38;;;2.07;73.73
36062;BME280;22123;52.412;20.970;2023-03-18T00:29:29;101268.28;;;2.34;73.50
36062;BME280;22123;52.412;20.970;2023-03-18T00:31:59;101273.06;;;2.29;73.81
36062;BME280;22123;52.412;20.970;2023-03-18T00:34:25;101255.03;;;2.20;74.05
36062;BME280;22123;52.412;20.970;2023-03-18T00:36:51;101209.00;;;1.92;72.96
36062;BME280;22123;52.412;20.970;2023-03-18T00:39:17;101252.47;;;2.18;72.91
36062;BME280;22123;52.412;20.970;2023-03-18T00:41:43;101213.63;;;2.03;73.15
36062;BME280;22123;52.412;20.970;2023-03-18T00:44:09;101232.25;;;2.16;71.73
36062;BME280;22123;52.412;20.970;2023-03-18T00:46:36;101211.03;;;2.01;73.65
36062;BME280;22123;52.412;20.970;2023-03-18T00:49:05;101218.28;;;1.99;72.88
36062;BME280;22123;52.412;20.970;2023-03-18T00:51:33;101238.44;;;2.16;73.63
36062;BME280;22123;52.412;20.970;2023-03-18T00:54:01;101243.84;;;2.15;73.47
36062;BME280;22123;52.412;20.970;2023-03-18T00:56:29;101242.25;;;2.12;73.37
36062;BME280;22123;52.412;20.970;2023-03-18T00:58:56;101236.25;;;2.08;74.04
36062;BME280;22123;52.412;20.970;2023-03-18T01:01:23;101229.47;;;2.04;72.72
36062;BME280;22123;52.412;20.970;2023-03-18T01:03:49;101220.53;;;2.05;73.46
36062;BME280;22123;52.412;20.970;2023-03-18T01:06:30;101226.59;;;2.07;74.06
36062;BME280;22123;52.412;20.970;2023-03-18T01:08:57;101201.13;;;1.90;72.24
36062;BME280;22123;52.412;20.970;2023-03-18T01:11:24;101205.00;;;1.99;73.82
36062;BME280;22123;52.412;20.970;2023-03-18T01:13:50;101148.84;;;1.64;74.87
36062;BME280;22123;52.412;20.970;2023-03-18T01:16:17;101218.75;;;2.06;73.78
36062;BME280;22123;52.412;20.970;2023-03-18T01:18:43;101210.88;;;2.04;73.13
36062;BME280;22123;52.412;20.970;2023-03-18T01:21:10;101158.13;;;1.71;73.35
36062;BME280;22123;52.412;20.970;2023-03-18T01:23:36;101121.06;;;1.55;71.88
36062;BME280;22123;52.412;20.970;2023-03-18T01:26:03;101151.94;;;1.70;72.64
36062;BME280;22123;52.412;20.970;2023-03-18T01:28:30;101207.34;;;2.04;72.76
36062;BME280;22123;52.412;20.970;2023-03-18T01:30:56;101197.63;;;1.90;71.59
36062;BME280;22123;52.412;20.970;2023-03-18T01:33:23;101208.59;;;1.98;73.82
36062;BME280;22123;52.412;20.970;2023-03-18T01:35:54;101155.84;;;1.65;73.58
36062;BME280;22123;52.412;20.970;2023-03-18T01:38:20;101207.94;;;1.95;74.81
36062;BME280;22123;52.412;20.970;2023-03-18T01:40:46;101189.38;;;1.80;72.93
36062;BME280;22123;52.412;20.970;2023-03-18T01:43:14;101205.50;;;1.91;71.92
36062;BME280;22123;52.412;20.970;2023-03-18T01:45:43;101160.84;;;1.69;72.69
36062;BME280;22123;52.412;20.970;2023-03-18T01:48:14;101203.56;;;1.94;73.55
36062;BME280;22123;52.412;20.970;2023-03-18T01:50:41;101164.56;;;1.67;72.10
36062;BME280;22123;52.412;20.970;2023-03-18T01:53:10;101144.88;;;1.56;71.59
36062;BME280;22123;52.412;20.970;2023-03-18T01:55:37;101172.25;;;1.71;72.72
36062;BME280;22123;52.412;20.970;2023-03-18T01:58:09;101193.75;;;1.81;70.95
36062;BME280;22123;52.412;20.970;2023-03-18T02:00:40;101202.38;;;1.85;72.66
36062;BME280;22123;52.412;20.970;2023-03-18T02:03:07;101198.19;;;1.81;72.51
36062;BME280;22123;52.412;20.970;2023-03-18T02:05:33;101205.50;;;1.77;72.99
36062;BME280;22123;52.412;20.970;2023-03-18T02:07:59;101168.84;;;1.55;73.14
36062;BME280;22123;52.412;20.970;2023-03-18T02:10:27;101106.25;;;1.09;73.23
36062;BME280;22123;52.412;20.970;2023-03-18T02:13:06;101207.69;;;1.70;72.34
36062;BME280;22123;52.412;20.970;2023-03-18T02:15:33;101208.09;;;1.64;72.76
36062;BME280;22123;52.412;20.970;2023-03-18T02:18:07;101223.16;;;1.64;73.59
36062;BME280;22123;52.412;20.970;2023-03-18T02:23:54;101193.22;;;1.47;73.50
36062;BME280;22123;52.412;20.970;2023-03-18T02:26:47;101088.53;;;0.81;74.12
36062;BME280;22123;52.412;20.970;2023-03-18T02:29:16;101180.91;;;1.32;75.01
36062;BME280;22123;52.412;20.970;2023-03-18T02:31:43;101207.50;;;1.45;75.96
36062;BME280;22123;52.412;20.970;2023-03-18T02:34:10;101191.69;;;1.43;76.56
36062;BME280;22123;52.412;20.970;2023-03-18T02:36:37;101198.22;;;1.37;75.91
36062;BME280;22123;52.412;20.970;2023-03-18T02:39:03;101167.91;;;1.13;76.10
36062;BME280;22123;52.412;20.970;2023-03-18T02:41:32;101198.50;;;1.33;76.36
36062;BME280;22123;52.412;20.970;2023-03-18T02:43:59;101202.03;;;1.33;77.03
36062;BME280;22123;52.412;20.970;2023-03-18T02:49:12;101130.69;;;0.85;77.01
36062;BME280;22123;52.412;20.970;2023-03-18T02:51:39;101192.84;;;1.25;78.03
36062;BME280;22123;52.412;20.970;2023-03-18T02:54:14;101194.81;;;1.21;76.88
36062;BME280;22123;52.412;20.970;2023-03-18T02:56:41;101203.91;;;1.17;77.72
36062;BME280;22123;52.412;20.970;2023-03-18T02:59:09;101197.16;;;1.11;78.61
36062;BME280;22123;52.412;20.970;2023-03-18T03:01:37;101194.72;;;1.08;80.59
36062;BME280;22123;52.412;20.970;2023-03-18T03:04:04;101199.38;;;1.04;79.59
36062;BME280;22123;52.412;20.970;2023-03-18T03:06:30;101145.59;;;0.72;81.05
36062;BME280;22123;52.412;20.970;2023-03-18T03:08:56;101181.63;;;0.91;80.83
36062;BME280;22123;52.412;20.970;2023-03-18T03:11:22;101160.28;;;0.78;81.31
36062;BME280;22123;52.412;20.970;2023-03-18T03:13:48;101178.41;;;0.85;81.73
36062;BME280;22123;52.412;20.970;2023-03-18T03:16:16;101191.28;;;0.92;81.71
36062;BME280;22123;52.412;20.970;2023-03-18T03:18:42;101188.81;;;0.89;83.07
36062;BME280;22123;52.412;20.970;2023-03-18T03:21:09;101192.69;;;0.83;82.69
36062;BME280;22123;52.412;20.970;2023-03-18T03:23:35;101181.22;;;0.82;83.11
36062;BME280;22123;52.412;20.970;2023-03-18T03:26:02;101181.41;;;0.79;83.74
36062;BME280;22123;52.412;20.970;2023-03-18T03:28:28;101122.19;;;0.50;83.84
36062;BME280;22123;52.412;20.970;2023-03-18T03:30:55;101139.63;;;0.54;84.74
36062;BME280;22123;52.412;20.970;2023-03-18T03:33:21;101146.25;;;0.61;83.74
36062;BME280;22123;52.412;20.970;2023-03-18T03:35:47;101173.72;;;0.75;85.07
36062;BME280;22123;52.412;20.970;2023-03-18T03:38:13;101137.63;;;0.58;84.87
36062;BME280;22123;52.412;20.970;2023-03-18T03:40:39;101154.59;;;0.69;84.58
36062;BME280;22123;52.412;20.970;2023-03-18T03:43:06;101181.31;;;0.81;85.05
36062;BME280;22123;52.412;20.970;2023-03-18T03:45:32;101193.13;;;0.75;85.44
36062;BME280;22123;52.412;20.970;2023-03-18T03:47:59;101160.81;;;0.54;87.23
36062;BME280;22123;52.412;20.970;2023-03-18T03:50:25;101169.19;;;0.62;85.29
36062;BME280;22123;52.412;20.970;2023-03-18T03:52:51;101175.97;;;0.66;86.66
36062;BME280;22123;52.412;20.970;2023-03-18T03:55:19;101183.19;;;0.64;86.65
36062;BME280;22123;52.412;20.970;2023-03-18T03:57:45;101152.63;;;0.43;85.15
36062;BME280;22123;52.412;20.970;2023-03-18T04:00:15;101162.88;;;0.49;86.21
36062;BME280;22123;52.412;20.970;2023-03-18T04:02:43;101186.38;;;0.55;88.08
36062;BME280;22123;52.412;20.970;2023-03-18T04:05:10;101148.59;;;0.21;88.92
36062;BME280;22123;52.412;20.970;2023-03-18T04:07:38;101139.19;;;0.15;89.44
36062;BME280;22123;52.412;20.970;2023-03-18T04:10:04;101187.50;;;0.51;87.33
36062;BME280;22123;52.412;20.970;2023-03-18T04:12:30;101143.81;;;0.28;85.88
36062;BME280;22123;52.412;20.970;2023-03-18T04:14:56;101190.81;;;0.55;86.43
36062;BME280;22123;52.412;20.970;2023-03-18T04:17:22;101182.06;;;0.38;86.13
36062;BME280;22123;52.412;20.970;2023-03-18T04:19:48;101197.22;;;0.50;85.87
36062;BME280;22123;52.412;20.970;2023-03-18T04:22:14;101160.91;;;0.22;85.48
36062;BME280;22123;52.412;20.970;2023-03-18T04:24:40;101164.38;;;0.23;87.79
36062;BME280;22123;52.412;20.970;2023-03-18T04:27:06;101208.28;;;0.43;87.58
36062;BME280;22123;52.412;20.970;2023-03-18T04:29:31;101174.03;;;0.24;86.46
36062;BME280;22123;52.412;20.970;2023-03-18T04:31:57;101133.09;;;-0.01;87.26
36062;BME280;22123;52.412;20.970;2023-03-18T04:34:23;101210.16;;;0.41;87.15
36062;BME280;22123;52.412;20.970;2023-03-18T04:36:50;101195.16;;;0.25;87.44
36062;BME280;22123;52.412;20.970;2023-03-18T04:39:16;101140.16;;;-0.02;87.83
36062;BME280;22123;52.412;20.970;2023-03-18T04:41:42;101198.78;;;0.39;87.28
36062;BME280;22123;52.412;20.970;2023-03-18T04:44:08;101205.03;;;0.38;89.41
36062;BME280;22123;52.412;20.970;2023-03-18T04:46:33;101188.91;;;0.26;87.90
36062;BME280;22123;52.412;20.970;2023-03-18T04:48:59;101161.69;;;0.08;84.85
36062;BME280;22123;52.412;20.970;2023-03-18T04:51:25;101161.41;;;0.13;86.46
36062;BME280;22123;52.412;20.970;2023-03-18T04:53:52;101202.56;;;0.34;86.26
36062;BME280;22123;52.412;20.970;2023-03-18T04:56:18;101199.16;;;0.32;85.75
36062;BME280;22123;52.412;20.970;2023-03-18T04:58:45;101177.06;;;0.17;86.47
36062;BME280;22123;52.412;20.970;2023-03-18T05:01:11;101203.75;;;0.29;88.71
36062;BME280;22123;52.412;20.970;2023-03-18T05:03:38;101186.78;;;0.17;88.76
36062;BME280;22123;52.412;20.970;2023-03-18T05:06:05;101194.53;;;0.20;87.33
36062;BME280;22123;52.412;20.970;2023-03-18T05:08:31;101145.91;;;-0.09;85.60
36062;BME280;22123;52.412;20.970;2023-03-18T05:10:57;101200.00;;;0.33;87.99
36062;BME280;22123;52.412;20.970;2023-03-18T05:13:23;101150.41;;;0.05;86.90
36062;BME280;22123;52.412;20.970;2023-03-18T05:15:49;101193.00;;;0.32;86.91
36062;BME280;22123;52.412;20.970;2023-03-18T05:18:15;101114.50;;;-0.15;87.58
36062;BME280;22123;52.412;20.970;2023-03-18T05:20:41;101128.72;;;-0.02;86.68
36062;BME280;22123;52.412;20.970;2023-03-18T05:23:07;101163.63;;;0.21;86.21
36062;BME280;22123;52.412;20.970;2023-03-18T05:25:34;101163.78;;;0.33;84.93
36062;BME280;22123;52.412;20.970;2023-03-18T05:28:00;101152.13;;;0.36;82.41
36062;BME280;22123;52.412;20.970;2023-03-18T05:30:26;101201.94;;;0.76;82.39
36062;BME280;22123;52.412;20.970;2023-03-18T05:32:52;101145.34;;;0.46;84.40
36062;BME280;22123;52.412;20.970;2023-03-18T05:35:18;101130.97;;;0.50;82.65
36062;BME280;22123;52.412;20.970;2023-03-18T05:37:44;101184.56;;;0.86;81.25
36062;BME280;22123;52.412;20.970;2023-03-18T05:40:10;101191.50;;;1.03;81.39
36062;BME280;22123;52.412;20.970;2023-03-18T05:42:36;101194.72;;;1.08;81.00
36062;BME280;22123;52.412;20.970;2023-03-18T05:45:03;101162.69;;;0.97;77.72
36062;BME280;22123;52.412;20.970;2023-03-18T05:47:30;101161.94;;;1.09;79.89
36062;BME280;22123;52.412;20.970;2023-03-18T05:49:55;101190.25;;;1.37;77.15
36062;BME280;22123;52.412;20.970;2023-03-18T05:52:21;101173.31;;;1.40;78.34
36062;BME280;22123;52.412;20.970;2023-03-18T05:54:47;101136.94;;;1.28;78.37
36062;BME280;22123;52.412;20.970;2023-03-18T05:57:13;101184.28;;;1.63;78.57
36062;BME280;22123;52.412;20.970;2023-03-18T05:59:39;101144.00;;;1.56;74.35
36062;BME280;22123;52.412;20.970;2023-03-18T06:02:05;101188.41;;;1.96;76.77
36062;BME280;22123;52.412;20.970;2023-03-18T06:04:31;101190.25;;;2.08;74.84
36062;BME280;22123;52.412;20.970;2023-03-18T06:06:57;101121.66;;;1.87;71.42
36062;BME280;22123;52.412;20.970;2023-03-18T06:09:23;101182.09;;;2.38;72.58
36062;BME280;22123;52.412;20.970;2023-03-18T06:11:49;101164.03;;;2.43;70.73
36062;BME280;22123;52.412;20.970;2023-03-18T06:14:15;101175.91;;;2.65;72.35
36062;BME280;22123;52.412;20.970;2023-03-18T06:16:41;101113.44;;;2.45;72.17
36062;BME280;22123;52.412;20.970;2023-03-18T06:19:08;101149.41;;;2.76;66.92
36062;BME280;22123;52.412;20.970;2023-03-18T06:21:34;101136.88;;;2.91;67.62
36062;BME280;22123;52.412;20.970;2023-03-18T06:24:00;101147.59;;;3.16;67.95
36062;BME280;22123;52.412;20.970;2023-03-18T06:26:26;101162.19;;;3.36;69.30
36062;BME280;22123;52.412;20.970;2023-03-18T06:28:52;101159.59;;;3.47;70.80
36062;BME280;22123;52.412;20.970;2023-03-18T06:31:18;101162.06;;;3.50;67.18
36062;BME280;22123;52.412;20.970;2023-03-18T06:33:44;101164.47;;;3.66;66.08
36062;BME280;22123;52.412;20.970;2023-03-18T06:36:10;101122.69;;;3.42;65.99
36062;BME280;22123;52.412;20.970;2023-03-18T06:38:36;101144.94;;;3.78;63.40
36062;BME280;22123;52.412;20.970;2023-03-18T06:41:01;101150.84;;;3.95;63.27
36062;BME280;22123;52.412;20.970;2023-03-18T06:43:27;101162.47;;;4.18;59.85
36062;BME280;22123;52.412;20.970;2023-03-18T06:45:53;101091.09;;;3.86;60.58
36062;BME280;22123;52.412;20.970;2023-03-18T06:48:19;101141.81;;;4.33;58.77
36062;BME280;22123;52.412;20.970;2023-03-18T06:50:45;101141.63;;;4.36;57.90
36062;BME280;22123;52.412;20.970;2023-03-18T06:53:11;101158.03;;;4.54;56.21
36062;BME280;22123;52.412;20.970;2023-03-18T06:55:37;101132.78;;;4.47;57.74
36062;BME280;22123;52.412;20.970;2023-03-18T06:58:04;101147.28;;;4.67;57.04
36062;BME280;22123;52.412;20.970;2023-03-18T07:00:31;101066.31;;;4.21;54.27
36062;BME280;22123;52.412;20.970;2023-03-18T07:02:57;101129.69;;;4.64;56.14
36062;BME280;22123;52.412;20.970;2023-03-18T07:05:23;101127.66;;;4.68;56.00
36062;BME280;22123;52.412;20.970;2023-03-18T07:07:49;101172.22;;;5.01;56.16
36062;BME280;22123;52.412;20.970;2023-03-18T07:10:21;101175.25;;;5.19;55.42
36062;BME280;22123;52.412;20.970;2023-03-18T07:12:48;101135.97;;;5.10;54.67
36062;BME280;22123;52.412;20.970;2023-03-18T07:15:14;101137.06;;;5.19;53.99
36062;BME280;22123;52.412;20.970;2023-03-18T07:17:40;101155.97;;;5.38;52.81
36062;BME280;22123;52.412;20.970;2023-03-18T07:20:06;101102.72;;;5.14;52.65
36062;BME280;22123;52.412;20.970;2023-03-18T07:22:32;101171.28;;;5.59;54.63
36062;BME280;22123;52.412;20.970;2023-03-18T07:24:57;101170.78;;;5.65;52.12
36062;BME280;22123;52.412;20.970;2023-03-18T07:27:23;101195.03;;;5.85;52.31
36062;BME280;22123;52.412;20.970;2023-03-18T07:29:49;101155.34;;;5.69;52.93
36062;BME280;22123;52.412;20.970;2023-03-18T07:32:15;101182.03;;;5.91;52.60
36062;BME280;22123;52.412;20.970;2023-03-18T07:34:41;101154.75;;;5.77;53.53
36062;BME280;22123;52.412;20.970;2023-03-18T07:37:07;101185.44;;;6.05;53.20
36062;BME280;22123;52.412;20.970;2023-03-18T07:39:33;101131.03;;;5.83;51.40
36062;BME280;22123;52.412;20.970;2023-03-18T07:41:59;101126.69;;;5.82;53.15
36062;BME280;22123;52.412;20.970;2023-03-18T07:44:25;101180.78;;;6.18;52.81
36062;BME280;22123;52.412;20.970;2023-03-18T07:46:51;101151.31;;;6.08;53.25
36062;BME280;22123;52.412;20.970;2023-03-18T07:49:17;101176.06;;;6.43;53.08
36062;BME280;22123;52.412;20.970;2023-03-18T07:51:42;101176.50;;;6.59;52.86
36062;BME280;22123;52.412;20.970;2023-03-18T07:54:08;101166.13;;;6.66;52.78
36062;BME280;22123;52.412;20.970;2023-03-18T07:56:34;101171.63;;;6.86;50.69
36062;BME280;22123;52.412;20.970;2023-03-18T07:59:00;101170.06;;;7.04;52.69
36062;BME280;22123;52.412;20.970;2023-03-18T08:01:26;101170.81;;;7.16;50.02
36062;BME280;22123;52.412;20.970;2023-03-18T08:03:52;101129.50;;;7.09;50.50
36062;BME280;22123;52.412;20.970;2023-03-18T08:06:18;101144.53;;;7.31;50.41
36062;BME280;22123;52.412;20.970;2023-03-18T08:08:44;101169.78;;;7.69;47.33
36062;BME280;22123;52.412;20.970;2023-03-18T08:11:10;101139.44;;;7.69;46.38
36062;BME280;22123;52.412;20.970;2023-03-18T08:13:37;101120.97;;;7.65;47.73
36062;BME280;22123;52.412;20.970;2023-03-18T08:16:04;101114.75;;;7.75;46.75
36062;BME280;22123;52.412;20.970;2023-03-18T08:18:30;101164.78;;;8.15;45.54
36062;BME280;22123;52.412;20.970;2023-03-18T08:20:56;101115.94;;;7.92;46.12
36062;BME280;22123;52.412;20.970;2023-03-18T08:23:22;101068.78;;;7.70;46.12
36062;BME280;22123;52.412;20.970;2023-03-18T08:25:48;101146.47;;;8.20;47.48
36062;BME280;22123;52.412;20.970;2023-03-18T08:28:15;101141.50;;;8.25;46.07
36062;BME280;22123;52.412;20.970;2023-03-18T08:30:41;101141.09;;;8.30;45.20
36062;BME280;22123;52.412;20.970;2023-03-18T08:33:07;101109.88;;;8.09;47.58
36062;BME280;22123;52.412;20.970;2023-03-18T08:35:33;101131.66;;;8.26;47.59
36062;BME280;22123;52.412;20.970;2023-03-18T08:37:59;101104.53;;;8.19;47.94
36062;BME280;22123;52.412;20.970;2023-03-18T08:40:26;101136.88;;;8.57;45.67
36062;BME280;22123;52.412;20.970;2023-03-18T08:42:52;101069.91;;;8.35;46.12
36062;BME280;22123;52.412;20.970;2023-03-18T08:45:18;101061.47;;;8.40;47.56
36062;BME280;22123;52.412;20.970;2023-03-18T08:47:44;101124.94;;;8.98;44.35
36062;BME280;22123;52.412;20.970;2023-03-18T08:50:11;101122.78;;;9.02;44.25
36062;BME280;22123;52.412;20.970;2023-03-18T08:52:37;101125.91;;;9.07;44.17
36062;BME280;22123;52.412;20.970;2023-03-18T08:55:04;101076.91;;;8.85;45.80
36062;BME280;22123;52.412;20.970;2023-03-18T08:57:31;101103.28;;;9.10;44.01
36062;BME280;22123;52.412;20.970;2023-03-18T08:59:56;101107.16;;;9.25;43.85
36062;BME280;22123;52.412;20.970;2023-03-18T09:02:22;101089.53;;;9.22;42.93
36062;BME280;22123;52.412;20.970;2023-03-18T09:04:48;101125.50;;;9.39;42.63
36062;BME280;22123;52.412;20.970;2023-03-18T09:07:14;101118.81;;;9.44;44.41
36062;BME280;22123;52.412;20.970;2023-03-18T09:09:40;101080.16;;;9.27;46.58
36062;BME280;22123;52.412;20.970;2023-03-18T09:12:06;101116.41;;;9.50;43.26
36062;BME280;22123;52.412;20.970;2023-03-18T09:14:33;101074.03;;;9.34;44.11
36062;BME280;22123;52.412;20.970;2023-03-18T09:16:59;101105.22;;;9.73;41.44
36062;BME280;22123;52.412;20.970;2023-03-18T09:19:25;101107.69;;;9.84;41.63
36062;BME280;22123;52.412;20.970;2023-03-18T09:21:51;101063.38;;;9.70;40.02
36062;BME280;22123;52.412;20.970;2023-03-18T09:24:17;101044.50;;;9.52;41.79
36062;BME280;22123;52.412;20.970;2023-03-18T09:26:43;101054.13;;;9.73;40.91
36062;BME280;22123;52.412;20.970;2023-03-18T09:29:09;101107.47;;;10.14;42.40
36062;BME280;22123;52.412;20.970;2023-03-18T09:31:36;101109.94;;;10.25;42.40
36062;BME280;22123;52.412;20.970;2023-03-18T09:34:02;101096.41;;;10.53;41.76
36062;BME280;22123;52.412;20.970;2023-03-18T09:36:28;100986.56;;;10.30;40.43
36062;BME280;22123;52.412;20.970;2023-03-18T09:38:54;101080.66;;;11.61;37.56
36062;BME280;22123;52.412;20.970;2023-03-18T09:41:36;101096.47;;;12.65;38.65
36062;BME280;22123;52.412;20.970;2023-03-18T09:44:22;101041.34;;;13.78;33.96
36062;BME280;22123;52.412;20.970;2023-03-18T09:47:02;101084.84;;;14.99;35.27
36062;BME280;22123;52.412;20.970;2023-03-18T09:49:37;101080.13;;;15.38;31.39
36062;BME280;22123;52.412;20.970;2023-03-18T09:52:24;101082.41;;;15.34;33.08
36062;BME280;22123;52.412;20.970;2023-03-18T09:57:30;101058.13;;;14.58;31.34
36062;BME280;22123;52.412;20.970;2023-03-18T10:00:04;101064.56;;;14.57;31.41
36062;BME280;22123;52.412;20.970;2023-03-18T10:02:39;101082.84;;;14.40;30.99
36062;BME280;22123;52.412;20.970;2023-03-18T10:05:15;101055.66;;;13.87;33.11
36062;BME280;22123;52.412;20.970;2023-03-18T10:07:43;101061.78;;;13.81;32.79
36062;BME280;22123;52.412;20.970;2023-03-18T10:10:21;101065.53;;;14.03;32.78
36062;BME280;22123;52.412;20.970;2023-03-18T10:12:59;101036.66;;;14.18;33.12
36062;BME280;22123;52.412;20.970;2023-03-18T10:15:41;101069.13;;;15.09;31.84
36062;BME280;22123;52.412;20.970;2023-03-18T10:18:19;101063.66;;;15.54;32.14
36062;BME280;22123;52.412;20.970;2023-03-18T10:26:15;101030.19;;;16.27;30.36
36062;BME280;22123;52.412;20.970;2023-03-18T10:29:19;101061.31;;;16.81;30.84
36062;BME280;22123;52.412;20.970;2023-03-18T10:34:20;101053.16;;;16.52;28.75
36062;BME280;22123;52.412;20.970;2023-03-18T10:39:24;101051.63;;;17.42;28.28
36062;BME280;22123;52.412;20.970;2023-03-18T10:41:53;101017.28;;;17.41;28.17
36062;BME280;22123;52.412;20.970;2023-03-18T10:44:28;101023.88;;;17.73;27.26
36062;BME280;22123;52.412;20.970;2023-03-18T10:49:41;101036.41;;;17.74;27.41
36062;BME280;22123;52.412;20.970;2023-03-18T10:52:34;100983.38;;;17.43;28.78
36062;BME280;22123;52.412;20.970;2023-03-18T10:55:02;101034.34;;;17.76;27.13
36062;BME280;22123;52.412;20.970;2023-03-18T10:57:28;101041.13;;;17.38;27.04
36062;BME280;22123;52.412;20.970;2023-03-18T10:59:54;101032.59;;;17.48;27.37
36062;BME280;22123;52.412;20.970;2023-03-18T11:02:35;101004.72;;;17.46;27.54
36062;BME280;22123;52.412;20.970;2023-03-18T11:05:26;101018.22;;;17.75;27.82
36062;BME280;22123;52.412;20.970;2023-03-18T11:07:59;100997.09;;;17.90;28.00
36062;BME280;22123;52.412;20.970;2023-03-18T11:10:35;100991.25;;;17.93;27.77
36062;BME280;22123;52.412;20.970;2023-03-18T11:13:01;100964.22;;;18.18;26.22
36062;BME280;22123;52.412;20.970;2023-03-18T11:15:30;100994.38;;;18.10;27.22
36062;BME280;22123;52.412;20.970;2023-03-18T11:18:01;100977.84;;;18.05;27.96
36062;BME280;22123;52.412;20.970;2023-03-18T11:20:36;100983.91;;;18.07;28.47
36062;BME280;22123;52.412;20.970;2023-03-18T11:23:05;101023.19;;;17.58;28.30
36062;BME280;22123;52.412;20.970;2023-03-18T11:25:30;100999.16;;;17.13;27.81
36062;BME280;22123;52.412;20.970;2023-03-18T11:28:05;100937.88;;;16.12;28.70
36062;BME280;22123;52.412;20.970;2023-03-18T11:30:43;101005.75;;;16.05;30.27
36062;BME280;22123;52.412;20.970;2023-03-18T11:35:38;100970.63;;;16.32;31.77
36062;BME280;22123;52.412;20.970;2023-03-18T11:38:12;100994.81;;;16.48;29.49
36062;BME280;22123;52.412;20.970;2023-03-18T11:40:38;100965.03;;;16.68;29.38
36062;BME280;22123;52.412;20.970;2023-03-18T11:43:17;100993.50;;;17.08;28.28
36062;BME280;22123;52.412;20.970;2023-03-18T11:48:19;100993.75;;;16.49;29.94
36062;BME280;22123;52.412;20.970;2023-03-18T11:50:56;100978.25;;;16.43;28.77
36062;BME280;22123;52.412;20.970;2023-03-18T11:53:32;100971.16;;;16.14;30.35
36062;BME280;22123;52.412;20.970;2023-03-18T11:56:17;100983.81;;;16.35;32.60
36062;BME280;22123;52.412;20.970;2023-03-18T11:59:16;100963.78;;;16.36;28.13
36062;BME280;22123;52.412;20.970;2023-03-18T12:15:33;100978.31;;;16.00;31.79
36062;BME280;22123;52.412;20.970;2023-03-18T12:18:22;100982.38;;;15.68;30.00
36062;BME280;22123;52.412;20.970;2023-03-18T12:20:53;100922.03;;;15.07;31.25
36062;BME280;22123;52.412;20.970;2023-03-18T12:23:47;100956.31;;;14.93;33.72
36062;BME280;22123;52.412;20.970;2023-03-18T12:29:01;100972.66;;;14.85;30.21
36062;BME280;22123;52.412;20.970;2023-03-18T12:34:03;100953.69;;;14.85;31.66
36062;BME280;22123;52.412;20.970;2023-03-18T12:50:22;100933.88;;;14.55;31.53
36062;BME280;22123;52.412;20.970;2023-03-18T12:52:57;100939.22;;;14.63;32.73
36062;BME280;22123;52.412;20.970;2023-03-18T12:55:43;100930.44;;;14.76;33.29
36062;BME280;22123;52.412;20.970;2023-03-18T13:00:58;100949.03;;;14.64;33.47
36062;BME280;22123;52.412;20.970;2023-03-18T13:03:34;100932.47;;;14.44;33.53
36062;BME280;22123;52.412;20.970;2023-03-18T13:06:06;100936.47;;;14.48;34.51
36062;BME280;22123;52.412;20.970;2023-03-18T13:11:46;100943.88;;;14.99;34.06
36062;BME280;22123;52.412;20.970;2023-03-18T13:14:18;100947.22;;;15.01;32.66
36062;BME280;22123;52.412;20.970;2023-03-18T13:16:48;100941.44;;;14.89;31.64
36062;BME280;22123;52.412;20.970;2023-03-18T13:19:14;100931.44;;;14.60;33.06
36062;BME280;22123;52.412;20.970;2023-03-18T13:21:55;100901.91;;;14.20;32.58
36062;BME280;22123;52.412;20.970;2023-03-18T13:27:03;100942.25;;;14.15;32.93
36062;BME280;22123;52.412;20.970;2023-03-18T13:29:41;100899.06;;;13.99;33.28
36062;BME280;22123;52.412;20.970;2023-03-18T13:32:46;100852.72;;;13.64;34.02
36062;BME280;22123;52.412;20.970;2023-03-18T13:43:28;100903.09;;;13.88;34.11
36062;BME280;22123;52.412;20.970;2023-03-18T13:45:56;100877.31;;;13.54;33.15
36062;BME280;22123;52.412;20.970;2023-03-18T13:48:31;100910.16;;;13.51;35.52
36062;BME280;22123;52.412;20.970;2023-03-18T13:50:58;100898.91;;;13.39;33.86
36062;BME280;22123;52.412;20.970;2023-03-18T13:53:39;100914.66;;;13.59;33.29
36062;BME280;22123;52.412;20.970;2023-03-18T13:56:26;100886.28;;;13.31;34.99
36062;BME280;22123;52.412;20.970;2023-03-18T13:58:52;100870.44;;;12.97;35.20
36062;BME280;22123;52.412;20.970;2023-03-18T14:02:19;100880.31;;;12.81;35.44
36062;BME280;22123;52.412;20.970;2023-03-18T14:04:31;100868.19;;;12.38;34.92
36062;BME280;22123;52.412;20.970;2023-03-18T14:07:16;100910.72;;;12.35;35.48
36062;BME280;22123;52.412;20.970;2023-03-18T14:15:01;100892.19;;;12.24;35.61
36062;BME280;22123;52.412;20.970;2023-03-18T14:22:41;100890.66;;;12.22;37.07